Main page
METAR-TAF:

METAR-TAF

Airports :

Dundee, Scotland

Dundee Airport

latitude: 56-27N, longitude: 003-01W, elevation: 4 m

Current weather observation

The report was made 43 minutes ago, at 20:50 UTC
Wind 12 kt from the West/Southwest
Temperature 5°C
Humidity 87%
Pressure 998 hPa
Visibility 10 km or more
Few clouds at a height of 3000 ft
Scattered clouds at a height of 4500 ft

METAR: EGPN 232050Z 25012KT 9999 FEW030 SCT045 05/03 Q0998

Time: 21:33 (21:33 UTC)

Forecast

The report was made 4 hours and 31 minutes ago, at 17:02 UTC
Forecast valid from 23 at 18 UTC to 24 at 03 UTC
Wind 9 kt from the West
Visibility 10 km or more
Few clouds at a height of 1200 ft
Scattered clouds at a height of 3000 ft
Probability 40% :
Temporary
from 23 at 18 UTC to 23 at 21 UTC
Wind 16 kt from the Southwest with gusts up to 26 kt

TAF: EGPN 231702Z 2318/2403 26009KT 9999 FEW012 SCT030 PROB40 TEMPO 2318/2321 23016G26KT

Weather observations and forecasts of more than 4000 airports (METAR and TAF reports).

The available stations are represented by yellow and red dots on the map.

Hover mouse over dot to see the name of the station.

Then click to see weather observations and forecasts.

To change the map : click on the green buttons with a black cross to zoom in, on the green button with a dash to zoom out, or on the green arrows for adjacent maps.


METAR-TAF: